sensor_id;sensor_type;location;lat;lon;timestamp;temperature;humidity
14016;DHT22;7083;48.854;9.158;2023-12-20T00:01:10;6.00;99.90
14016;DHT22;7083;48.854;9.158;2023-12-20T00:03:37;6.00;99.90
14016;DHT22;7083;48.854;9.158;2023-12-20T00:06:04;6.10;99.90
14016;DHT22;7083;48.854;9.158;2023-12-20T00:08:30;6.10;99.90
14016;DHT22;7083;48.854;9.158;2023-12-20T00:10:57;6.10;99.90
14016;DHT22;7083;48.854;9.158;2023-12-20T00:13:24;6.10;99.90
14016;DHT22;7083;48.854;9.158;2023-12-20T00:15:51;6.10;99.90
14016;DHT22;7083;48.854;9.158;2023-12-20T00:18:17;6.10;99.90
14016;DHT22;7083;48.854;9.158;2023-12-20T00:20:44;6.10;99.90
14016;DHT22;7083;48.854;9.158;2023-12-20T00:23:11;6.00;99.90
14016;DHT22;7083;48.854;9.158;2023-12-20T00:25:37;6.00;99.90
14016;DHT22;7083;48.854;9.158;2023-12-20T00:28:06;6.00;99.90
14016;DHT22;7083;48.854;9.158;2023-12-20T00:30:33;6.00;99.90
14016;DHT22;7083;48.854;9.158;2023-12-20T00:32:59;5.90;99.90
14016;DHT22;7083;48.854;9.158;2023-12-20T00:35:26;5.90;99.90
14016;DHT22;7083;48.854;9.158;2023-12-20T00:37:52;5.90;99.90
14016;DHT22;7083;48.854;9.158;2023-12-20T00:40:19;5.90;99.90
14016;DHT22;7083;48.854;9.158;2023-12-20T00:42:46;5.80;99.90
14016;DHT22;7083;48.854;9.158;2023-12-20T00:45:15;5.80;99.90
14016;DHT22;7083;48.854;9.158;2023-12-20T00:47:41;5.80;99.90
14016;DHT22;7083;48.854;9.158;2023-12-20T00:50:09;5.90;99.90
14016;DHT22;7083;48.854;9.158;2023-12-20T00:52:35;5.70;99.90
14016;DHT22;7083;48.854;9.158;2023-12-20T00:55:02;5.70;99.90
14016;DHT22;7083;48.854;9.158;2023-12-20T00:57:29;5.70;99.90
14016;DHT22;7083;48.854;9.158;2023-12-20T00:59:56;5.60;99.90
14016;DHT22;7083;48.854;9.158;2023-12-20T01:02:24;7.70;99.90
14016;DHT22;7083;48.854;9.158;2023-12-20T01:04:51;5.60;99.90
14016;DHT22;7083;48.854;9.158;2023-12-20T01:07:18;5.50;99.90
14016;DHT22;7083;48.854;9.158;2023-12-20T01:09:44;5.50;99.90
14016;DHT22;7083;48.854;9.158;2023-12-20T01:12:11;5.50;99.90
14016;DHT22;7083;48.854;9.158;2023-12-20T01:14:38;5.40;99.90
14016;DHT22;7083;48.854;9.158;2023-12-20T01:17:05;5.40;99.90
14016;DHT22;7083;48.854;9.158;2023-12-20T01:19:33;5.40;99.90
14016;DHT22;7083;48.854;9.158;2023-12-20T01:22:00;5.30;99.90
14016;DHT22;7083;48.854;9.158;2023-12-20T01:24:26;5.30;99.90
14016;DHT22;7083;48.854;9.158;2023-12-20T01:26:53;5.30;99.90
14016;DHT22;7083;48.854;9.158;2023-12-20T01:29:20;5.20;99.90
14016;DHT22;7083;48.854;9.158;2023-12-20T01:31:46;5.20;99.90
14016;DHT22;7083;48.854;9.158;2023-12-20T01:34:13;5.20;99.90
14016;DHT22;7083;48.854;9.158;2023-12-20T01:36:42;5.20;99.90
14016;DHT22;7083;48.854;9.158;2023-12-20T01:39:10;5.10;99.90
14016;DHT22;7083;48.854;9.158;2023-12-20T01:41:36;5.10;99.90
14016;DHT22;7083;48.854;9.158;2023-12-20T01:44:03;5.10;99.90
14016;DHT22;7083;48.854;9.158;2023-12-20T01:46:30;5.10;99.90
14016;DHT22;7083;48.854;9.158;2023-12-20T01:48:57;5.10;99.90
14016;DHT22;7083;48.854;9.158;2023-12-20T01:51:25;5.00;99.90
14016;DHT22;7083;48.854;9.158;2023-12-20T01:53:54;5.00;99.90
14016;DHT22;7083;48.854;9.158;2023-12-20T01:56:21;5.00;99.90
14016;DHT22;7083;48.854;9.158;2023-12-20T01:58:48;5.00;99.90
14016;DHT22;7083;48.854;9.158;2023-12-20T02:01:15;5.00;99.90
14016;DHT22;7083;48.854;9.158;2023-12-20T02:03:42;5.00;99.90
14016;DHT22;7083;48.854;9.158;2023-12-20T02:06:09;5.00;99.90
14016;DHT22;7083;48.854;9.158;2023-12-20T02:08:36;4.90;99.90
14016;DHT22;7083;48.854;9.158;2023-12-20T02:11:04;4.90;99.90
14016;DHT22;7083;48.854;9.158;2023-12-20T02:13:31;4.40;99.90
14016;DHT22;7083;48.854;9.158;2023-12-20T02:15:58;4.90;99.90
14016;DHT22;7083;48.854;9.158;2023-12-20T02:18:25;4.80;99.90
14016;DHT22;7083;48.854;9.158;2023-12-20T02:20:51;4.80;99.90
14016;DHT22;7083;48.854;9.158;2023-12-20T02:23:20;4.80;99.90
14016;DHT22;7083;48.854;9.158;2023-12-20T02:25:47;4.80;99.90
14016;DHT22;7083;48.854;9.158;2023-12-20T02:28:13;4.80;99.90
14016;DHT22;7083;48.854;9.158;2023-12-20T02:30:40;4.80;99.90
14016;DHT22;7083;48.854;9.158;2023-12-20T02:33:08;4.80;99.90
14016;DHT22;7083;48.854;9.158;2023-12-20T02:35:37;4.90;99.90
14016;DHT22;7083;48.854;9.158;2023-12-20T02:38:03;4.90;99.90
14016;DHT22;7083;48.854;9.158;2023-12-20T02:40:31;5.00;99.90
14016;DHT22;7083;48.854;9.158;2023-12-20T02:42:58;5.00;99.90
14016;DHT22;7083;48.854;9.158;2023-12-20T02:45:26;5.10;99.90
14016;DHT22;7083;48.854;9.158;2023-12-20T02:47:53;5.20;99.90
14016;DHT22;7083;48.854;9.158;2023-12-20T02:50:19;5.20;99.90
14016;DHT22;7083;48.854;9.158;2023-12-20T02:52:46;5.30;99.90
14016;DHT22;7083;48.854;9.158;2023-12-20T02:55:13;5.30;99.90
14016;DHT22;7083;48.854;9.158;2023-12-20T02:57:41;5.30;99.90
14016;DHT22;7083;48.854;9.158;2023-12-20T03:00:08;5.40;99.90
14016;DHT22;7083;48.854;9.158;2023-12-20T03:02:36;5.40;99.90
14016;DHT22;7083;48.854;9.158;2023-12-20T03:05:02;5.30;99.90
14016;DHT22;7083;48.854;9.158;2023-12-20T03:07:29;5.40;99.90
14016;DHT22;7083;48.854;9.158;2023-12-20T03:09:56;5.30;99.90
14016;DHT22;7083;48.854;9.158;2023-12-20T03:12:22;5.30;99.90
14016;DHT22;7083;48.854;9.158;2023-12-20T03:14:50;5.20;99.90
14016;DHT22;7083;48.854;9.158;2023-12-20T03:17:17;5.20;99.90
14016;DHT22;7083;48.854;9.158;2023-12-20T03:19:47;5.20;99.90
14016;DHT22;7083;48.854;9.158;2023-12-20T03:22:14;5.20;99.90
14016;DHT22;7083;48.854;9.158;2023-12-20T03:24:41;5.10;99.90
14016;DHT22;7083;48.854;9.158;2023-12-20T03:27:10;5.10;99.90
14016;DHT22;7083;48.854;9.158;2023-12-20T03:29:37;5.10;99.90
14016;DHT22;7083;48.854;9.158;2023-12-20T03:32:05;5.10;99.90
14016;DHT22;7083;48.854;9.158;2023-12-20T03:34:34;5.00;99.90
14016;DHT22;7083;48.854;9.158;2023-12-20T03:37:00;5.00;99.90
14016;DHT22;7083;48.854;9.158;2023-12-20T03:39:27;5.00;99.90
14016;DHT22;7083;48.854;9.158;2023-12-20T03:41:53;5.00;99.90
14016;DHT22;7083;48.854;9.158;2023-12-20T03:44:20;5.00;99.90
14016;DHT22;7083;48.854;9.158;2023-12-20T03:46:47;5.00;99.90
14016;DHT22;7083;48.854;9.158;2023-12-20T03:49:16;5.00;99.90
14016;DHT22;7083;48.854;9.158;2023-12-20T03:51:42;4.90;99.90
14016;DHT22;7083;48.854;9.158;2023-12-20T03:54:09;4.90;99.90
14016;DHT22;7083;48.854;9.158;2023-12-20T03:56:36;4.90;99.90
14016;DHT22;7083;48.854;9.158;2023-12-20T03:59:02;4.90;99.90
14016;DHT22;7083;48.854;9.158;2023-12-20T04:01:29;4.90;99.90
14016;DHT22;7083;48.854;9.158;2023-12-20T04:03:55;4.90;99.90
14016;DHT22;7083;48.854;9.158;2023-12-20T04:06:23;4.90;99.90
14016;DHT22;7083;48.854;9.158;2023-12-20T04:08:50;4.90;99.90
14016;DHT22;7083;48.854;9.158;2023-12-20T04:11:17;4.80;99.90
14016;DHT22;7083;48.854;9.158;2023-12-20T04:13:44;4.90;99.90
14016;DHT22;7083;48.854;9.158;2023-12-20T04:16:11;4.80;99.90
14016;DHT22;7083;48.854;9.158;2023-12-20T04:18:37;4.80;99.90
14016;DHT22;7083;48.854;9.158;2023-12-20T04:21:04;4.80;99.90
14016;DHT22;7083;48.854;9.158;2023-12-20T04:23:32;5.20;99.90
14016;DHT22;7083;48.854;9.158;2023-12-20T04:25:59;4.70;99.90
14016;DHT22;7083;48.854;9.158;2023-12-20T04:28:25;4.70;99.90
14016;DHT22;7083;48.854;9.158;2023-12-20T04:30:52;4.70;99.90
14016;DHT22;7083;48.854;9.158;2023-12-20T04:33:19;4.70;99.90
14016;DHT22;7083;48.854;9.158;2023-12-20T04:35:45;4.70;99.90
14016;DHT22;7083;48.854;9.158;2023-12-20T04:38:12;4.70;99.90
14016;DHT22;7083;48.854;9.158;2023-12-20T04:40:40;4.70;99.90
14016;DHT22;7083;48.854;9.158;2023-12-20T04:43:07;4.70;99.90
14016;DHT22;7083;48.854;9.158;2023-12-20T04:45:34;4.70;99.90
14016;DHT22;7083;48.854;9.158;2023-12-20T04:48:01;4.70;99.90
14016;DHT22;7083;48.854;9.158;2023-12-20T04:50:28;4.70;99.90
14016;DHT22;7083;48.854;9.158;2023-12-20T04:52:55;4.70;99.90
14016;DHT22;7083;48.854;9.158;2023-12-20T04:55:21;4.70;99.90
14016;DHT22;7083;48.854;9.158;2023-12-20T04:57:49;4.70;99.90
14016;DHT22;7083;48.854;9.158;2023-12-20T05:00:16;4.80;99.90
14016;DHT22;7083;48.854;9.158;2023-12-20T05:02:43;4.80;99.90
14016;DHT22;7083;48.854;9.158;2023-12-20T05:05:10;4.80;99.90
14016;DHT22;7083;48.854;9.158;2023-12-20T05:07:37;4.80;99.90
14016;DHT22;7083;48.854;9.158;2023-12-20T05:10:04;4.80;99.90
14016;DHT22;7083;48.854;9.158;2023-12-20T05:12:31;4.80;99.90
14016;DHT22;7083;48.854;9.158;2023-12-20T05:14:59;4.80;99.90
14016;DHT22;7083;48.854;9.158;2023-12-20T05:17:25;4.90;99.90
14016;DHT22;7083;48.854;9.158;2023-12-20T05:19:52;4.80;99.90
14016;DHT22;7083;48.854;9.158;2023-12-20T05:22:19;4.90;99.90
14016;DHT22;7083;48.854;9.158;2023-12-20T05:24:46;4.90;99.90
14016;DHT22;7083;48.854;9.158;2023-12-20T05:27:12;4.90;99.90
14016;DHT22;7083;48.854;9.158;2023-12-20T05:29:39;5.00;99.90
14016;DHT22;7083;48.854;9.158;2023-12-20T05:32:07;4.90;99.90
14016;DHT22;7083;48.854;9.158;2023-12-20T05:34:34;5.00;99.90
14016;DHT22;7083;48.854;9.158;2023-12-20T05:37:00;5.00;99.90
14016;DHT22;7083;48.854;9.158;2023-12-20T05:39:28;5.00;99.90
14016;DHT22;7083;48.854;9.158;2023-12-20T05:41:56;5.00;99.90
14016;DHT22;7083;48.854;9.158;2023-12-20T05:44:23;5.00;99.90
14016;DHT22;7083;48.854;9.158;2023-12-20T05:46:50;5.10;99.90
14016;DHT22;7083;48.854;9.158;2023-12-20T05:49:17;5.10;99.90
14016;DHT22;7083;48.854;9.158;2023-12-20T05:51:44;5.10;99.90
14016;DHT22;7083;48.854;9.158;2023-12-20T05:54:11;5.50;99.90
14016;DHT22;7083;48.854;9.158;2023-12-20T05:56:38;5.10;99.90
14016;DHT22;7083;48.854;9.158;2023-12-20T05:59:04;5.10;99.90
14016;DHT22;7083;48.854;9.158;2023-12-20T06:01:31;5.10;99.90
14016;DHT22;7083;48.854;9.158;2023-12-20T06:03:57;5.10;99.90
14016;DHT22;7083;48.854;9.158;2023-12-20T06:06:25;5.10;99.90
14016;DHT22;7083;48.854;9.158;2023-12-20T06:08:52;5.10;99.90
14016;DHT22;7083;48.854;9.158;2023-12-20T06:11:19;5.20;99.90
14016;DHT22;7083;48.854;9.158;2023-12-20T06:13:45;5.20;99.90
14016;DHT22;7083;48.854;9.158;2023-12-20T06:16:12;5.20;99.90
14016;DHT22;7083;48.854;9.158;2023-12-20T06:18:39;5.20;99.90
14016;DHT22;7083;48.854;9.158;2023-12-20T06:21:06;5.20;99.90
14016;DHT22;7083;48.854;9.158;2023-12-20T06:23:35;5.00;99.90
14016;DHT22;7083;48.854;9.158;2023-12-20T06:26:01;5.20;99.90
14016;DHT22;7083;48.854;9.158;2023-12-20T06:28:28;5.20;99.90
14016;DHT22;7083;48.854;9.158;2023-12-20T06:30:55;5.20;99.90
14016;DHT22;7083;48.854;9.158;2023-12-20T06:33:22;5.20;99.90
14016;DHT22;7083;48.854;9.158;2023-12-20T06:35:49;5.20;99.90
14016;DHT22;7083;48.854;9.158;2023-12-20T06:38:19;5.20;99.90
14016;DHT22;7083;48.854;9.158;2023-12-20T06:40:47;5.20;99.90
14016;DHT22;7083;48.854;9.158;2023-12-20T06:43:14;5.30;99.90
14016;DHT22;7083;48.854;9.158;2023-12-20T06:45:40;5.30;99.90
14016;DHT22;7083;48.854;9.158;2023-12-20T06:48:07;5.20;99.90
14016;DHT22;7083;48.854;9.158;2023-12-20T06:50:35;5.30;99.90
14016;DHT22;7083;48.854;9.158;2023-12-20T06:53:05;5.30;99.90
14016;DHT22;7083;48.854;9.158;2023-12-20T06:55:32;5.20;99.90
14016;DHT22;7083;48.854;9.158;2023-12-20T06:58:00;5.30;99.90
14016;DHT22;7083;48.854;9.158;2023-12-20T07:00:27;5.20;99.90
14016;DHT22;7083;48.854;9.158;2023-12-20T07:02:54;5.20;99.90
14016;DHT22;7083;48.854;9.158;2023-12-20T07:05:21;5.30;99.90
14016;DHT22;7083;48.854;9.158;2023-12-20T07:07:48;5.30;99.90
14016;DHT22;7083;48.854;9.158;2023-12-20T07:10:14;5.30;99.90
14016;DHT22;7083;48.854;9.158;2023-12-20T07:12:41;5.30;99.90
14016;DHT22;7083;48.854;9.158;2023-12-20T07:15:10;5.30;99.90
14016;DHT22;7083;48.854;9.158;2023-12-20T07:17:37;5.30;99.90
14016;DHT22;7083;48.854;9.158;2023-12-20T07:20:05;5.30;99.90
14016;DHT22;7083;48.854;9.158;2023-12-20T07:22:35;5.30;99.90
14016;DHT22;7083;48.854;9.158;2023-12-20T07:25:01;5.30;99.90
14016;DHT22;7083;48.854;9.158;2023-12-20T07:27:29;5.30;99.90
14016;DHT22;7083;48.854;9.158;2023-12-20T07:29:55;5.30;99.90
14016;DHT22;7083;48.854;9.158;2023-12-20T07:32:23;5.30;99.90
14016;DHT22;7083;48.854;9.158;2023-12-20T07:34:50;5.20;99.90
14016;DHT22;7083;48.854;9.158;2023-12-20T07:37:17;5.20;99.90
14016;DHT22;7083;48.854;9.158;2023-12-20T07:39:43;5.20;99.90
14016;DHT22;7083;48.854;9.158;2023-12-20T07:42:10;5.20;99.90
14016;DHT22;7083;48.854;9.158;2023-12-20T07:44:37;5.10;99.90
14016;DHT22;7083;48.854;9.158;2023-12-20T07:47:04;5.10;99.90
14016;DHT22;7083;48.854;9.158;2023-12-20T07:49:32;5.00;99.90
14016;DHT22;7083;48.854;9.158;2023-12-20T07:51:59;4.90;99.90
14016;DHT22;7083;48.854;9.158;2023-12-20T07:54:26;4.80;99.90
14016;DHT22;7083;48.854;9.158;2023-12-20T07:56:52;4.80;99.90
14016;DHT22;7083;48.854;9.158;2023-12-20T07:59:19;4.60;99.90
14016;DHT22;7083;48.854;9.158;2023-12-20T08:01:46;4.60;99.90
14016;DHT22;7083;48.854;9.158;2023-12-20T08:04:12;4.50;99.90
14016;DHT22;7083;48.854;9.158;2023-12-20T08:06:40;4.40;99.90
14016;DHT22;7083;48.854;9.158;2023-12-20T08:09:07;4.30;99.90
14016;DHT22;7083;48.854;9.158;2023-12-20T08:11:34;4.20;99.90
14016;DHT22;7083;48.854;9.158;2023-12-20T08:14:00;4.10;99.90
14016;DHT22;7083;48.854;9.158;2023-12-20T08:16:27;4.10;99.90
14016;DHT22;7083;48.854;9.158;2023-12-20T08:18:53;4.10;99.90
14016;DHT22;7083;48.854;9.158;2023-12-20T08:21:20;4.10;99.90
14016;DHT22;7083;48.854;9.158;2023-12-20T08:23:49;4.10;99.90
14016;DHT22;7083;48.854;9.158;2023-12-20T08:26:19;4.10;99.90
14016;DHT22;7083;48.854;9.158;2023-12-20T08:28:47;4.10;99.90
14016;DHT22;7083;48.854;9.158;2023-12-20T08:31:14;4.10;99.90
14016;DHT22;7083;48.854;9.158;2023-12-20T08:33:40;4.10;99.90
14016;DHT22;7083;48.854;9.158;2023-12-20T08:36:07;4.00;99.90
14016;DHT22;7083;48.854;9.158;2023-12-20T08:38:34;4.00;99.90
14016;DHT22;7083;48.854;9.158;2023-12-20T08:41:02;4.00;99.90
14016;DHT22;7083;48.854;9.158;2023-12-20T08:43:30;4.00;99.90
14016;DHT22;7083;48.854;9.158;2023-12-20T08:45:57;4.00;99.90
14016;DHT22;7083;48.854;9.158;2023-12-20T08:48:24;4.00;99.90
14016;DHT22;7083;48.854;9.158;2023-12-20T08:50:50;4.00;99.90
14016;DHT22;7083;48.854;9.158;2023-12-20T08:53:18;4.00;99.90
14016;DHT22;7083;48.854;9.158;2023-12-20T08:55:45;4.00;99.90
14016;DHT22;7083;48.854;9.158;2023-12-20T08:58:13;4.10;99.90
14016;DHT22;7083;48.854;9.158;2023-12-20T09:00:40;4.10;99.90
14016;DHT22;7083;48.854;9.158;2023-12-20T09:03:07;4.10;99.90
14016;DHT22;7083;48.854;9.158;2023-12-20T09:05:33;4.10;99.90
14016;DHT22;7083;48.854;9.158;2023-12-20T09:08:00;4.10;99.90
14016;DHT22;7083;48.854;9.158;2023-12-20T09:10:27;4.10;99.90
14016;DHT22;7083;48.854;9.158;2023-12-20T09:12:54;4.10;99.90
14016;DHT22;7083;48.854;9.158;2023-12-20T09:15:23;4.10;99.90
14016;DHT22;7083;48.854;9.158;2023-12-20T09:17:50;4.10;99.90
14016;DHT22;7083;48.854;9.158;2023-12-20T09:20:17;4.20;99.90
14016;DHT22;7083;48.854;9.158;2023-12-20T09:22:43;4.20;99.90
14016;DHT22;7083;48.854;9.158;2023-12-20T09:25:10;4.20;99.90
14016;DHT22;7083;48.854;9.158;2023-12-20T09:27:38;4.20;99.90
14016;DHT22;7083;48.854;9.158;2023-12-20T09:30:05;4.20;99.90
14016;DHT22;7083;48.854;9.158;2023-12-20T09:32:33;4.20;99.90
14016;DHT22;7083;48.854;9.158;2023-12-20T09:35:00;4.20;99.90
14016;DHT22;7083;48.854;9.158;2023-12-20T09:37:27;4.30;99.90
14016;DHT22;7083;48.854;9.158;2023-12-20T09:39:54;4.30;99.90
14016;DHT22;7083;48.854;9.158;2023-12-20T09:42:26;4.30;99.90
14016;DHT22;7083;48.854;9.158;2023-12-20T09:44:59;4.30;99.90
14016;DHT22;7083;48.854;9.158;2023-12-20T09:47:28;4.30;99.90
14016;DHT22;7083;48.854;9.158;2023-12-20T09:49:57;4.30;99.90
14016;DHT22;7083;48.854;9.158;2023-12-20T09:52:24;4.30;99.90
14016;DHT22;7083;48.854;9.158;2023-12-20T09:54:53;4.30;99.90
14016;DHT22;7083;48.854;9.158;2023-12-20T09:57:20;4.30;99.90
14016;DHT22;7083;48.854;9.158;2023-12-20T09:59:47;4.30;99.90
14016;DHT22;7083;48.854;9.158;2023-12-20T10:02:14;4.20;99.90
14016;DHT22;7083;48.854;9.158;2023-12-20T10:04:45;4.20;99.90
14016;DHT22;7083;48.854;9.158;2023-12-20T10:07:14;4.20;99.90
14016;DHT22;7083;48.854;9.158;2023-12-20T10:09:41;4.20;99.90
14016;DHT22;7083;48.854;9.158;2023-12-20T10:12:08;4.10;99.90
14016;DHT22;7083;48.854;9.158;2023-12-20T10:14:34;4.10;99.90
14016;DHT22;7083;48.854;9.158;2023-12-20T10:17:02;4.00;99.90
14016;DHT22;7083;48.854;9.158;2023-12-20T10:19:29;4.00;99.90
14016;DHT22;7083;48.854;9.158;2023-12-20T10:21:58;3.90;99.90
14016;DHT22;7083;48.854;9.158;2023-12-20T10:24:28;3.90;99.90
14016;DHT22;7083;48.854;9.158;2023-12-20T10:27:01;4.00;99.90
14016;DHT22;7083;48.854;9.158;2023-12-20T10:29:32;4.00;99.90
14016;DHT22;7083;48.854;9.158;2023-12-20T10:31:59;4.00;99.90
14016;DHT22;7083;48.854;9.158;2023-12-20T10:34:26;4.00;99.90
14016;DHT22;7083;48.854;9.158;2023-12-20T10:36:53;3.90;99.90
14016;DHT22;7083;48.854;9.158;2023-12-20T10:39:20;3.90;99.90
14016;DHT22;7083;48.854;9.158;2023-12-20T10:41:49;3.80;99.90
14016;DHT22;7083;48.854;9.158;2023-12-20T10:44:16;3.90;99.90
14016;DHT22;7083;48.854;9.158;2023-12-20T10:46:43;4.10;99.90
14016;DHT22;7083;48.854;9.158;2023-12-20T10:49:17;4.30;99.90
14016;DHT22;7083;48.854;9.158;2023-12-20T10:51:46;4.40;99.90
14016;DHT22;7083;48.854;9.158;2023-12-20T10:54:14;4.50;99.90
14016;DHT22;7083;48.854;9.158;2023-12-20T10:56:41;4.70;99.90
14016;DHT22;7083;48.854;9.158;2023-12-20T10:59:11;4.80;99.90
14016;DHT22;7083;48.854;9.158;2023-12-20T11:01:38;4.90;99.90
14016;DHT22;7083;48.854;9.158;2023-12-20T11:04:08;5.00;99.90
14016;DHT22;7083;48.854;9.158;2023-12-20T11:06:43;5.20;99.90
14016;DHT22;7083;48.854;9.158;2023-12-20T11:09:17;5.30;99.90
14016;DHT22;7083;48.854;9.158;2023-12-20T11:11:58;5.30;99.90
14016;DHT22;7083;48.854;9.158;2023-12-20T11:14:31;5.20;99.90
14016;DHT22;7083;48.854;9.158;2023-12-20T11:17:07;5.10;99.90
14016;DHT22;7083;48.854;9.158;2023-12-20T11:19:36;5.10;99.90
14016;DHT22;7083;48.854;9.158;2023-12-20T11:22:04;5.00;99.90
14016;DHT22;7083;48.854;9.158;2023-12-20T11:24:31;5.00;99.90
14016;DHT22;7083;48.854;9.158;2023-12-20T11:27:00;5.00;99.90
14016;DHT22;7083;48.854;9.158;2023-12-20T11:29:33;5.00;99.90
14016;DHT22;7083;48.854;9.158;2023-12-20T11:32:01;5.00;99.90
14016;DHT22;7083;48.854;9.158;2023-12-20T11:34:28;5.00;99.90
14016;DHT22;7083;48.854;9.158;2023-12-20T11:36:58;5.00;99.90
14016;DHT22;7083;48.854;9.158;2023-12-20T11:39:25;5.00;99.90
14016;DHT22;7083;48.854;9.158;2023-12-20T11:41:54;4.90;99.90
14016;DHT22;7083;48.854;9.158;2023-12-20T11:44:21;4.90;99.90
14016;DHT22;7083;48.854;9.158;2023-12-20T11:46:49;4.80;99.90
14016;DHT22;7083;48.854;9.158;2023-12-20T11:49:16;4.70;99.90
14016;DHT22;7083;48.854;9.158;2023-12-20T11:51:44;4.60;99.90
14016;DHT22;7083;48.854;9.158;2023-12-20T11:54:10;4.50;99.90
14016;DHT22;7083;48.854;9.158;2023-12-20T11:56:37;4.40;99.90
14016;DHT22;7083;48.854;9.158;2023-12-20T11:59:04;4.40;99.90
14016;DHT22;7083;48.854;9.158;2023-12-20T12:01:31;4.40;99.90
14016;DHT22;7083;48.854;9.158;2023-12-20T12:04:06;4.50;99.90
14016;DHT22;7083;48.854;9.158;2023-12-20T12:06:32;4.50;99.90
14016;DHT22;7083;48.854;9.158;2023-12-20T12:08:59;4.60;99.90
14016;DHT22;7083;48.854;9.158;2023-12-20T12:11:26;4.60;99.90
14016;DHT22;7083;48.854;9.158;2023-12-20T12:13:53;4.70;99.90
14016;DHT22;7083;48.854;9.158;2023-12-20T12:16:20;4.80;99.90
14016;DHT22;7083;48.854;9.158;2023-12-20T12:18:55;4.90;99.90
14016;DHT22;7083;48.854;9.158;2023-12-20T12:21:23;4.90;99.90
14016;DHT22;7083;48.854;9.158;2023-12-20T12:23:50;5.00;99.90
14016;DHT22;7083;48.854;9.158;2023-12-20T12:26:17;5.00;99.90
14016;DHT22;7083;48.854;9.158;2023-12-20T12:28:43;4.90;99.90
14016;DHT22;7083;48.854;9.158;2023-12-20T12:31:14;4.90;99.90
14016;DHT22;7083;48.854;9.158;2023-12-20T12:33:42;4.80;99.90
14016;DHT22;7083;48.854;9.158;2023-12-20T12:36:10;4.90;99.90
14016;DHT22;7083;48.854;9.158;2023-12-20T12:38:39;4.90;99.90
14016;DHT22;7083;48.854;9.158;2023-12-20T12:41:05;5.00;99.90
14016;DHT22;7083;48.854;9.158;2023-12-20T12:43:32;5.20;99.90
14016;DHT22;7083;48.854;9.158;2023-12-20T12:46:00;5.20;99.90
14016;DHT22;7083;48.854;9.158;2023-12-20T12:48:27;5.20;99.90
14016;DHT22;7083;48.854;9.158;2023-12-20T12:50:54;5.20;99.90
14016;DHT22;7083;48.854;9.158;2023-12-20T12:53:24;5.20;99.90
14016;DHT22;7083;48.854;9.158;2023-12-20T12:55:53;5.10;99.90
14016;DHT22;7083;48.854;9.158;2023-12-20T12:58:21;5.10;99.90
14016;DHT22;7083;48.854;9.158;2023-12-20T13:00:48;4.80;99.90
14016;DHT22;7083;48.854;9.158;2023-12-20T13:03:15;5.00;99.90
14016;DHT22;7083;48.854;9.158;2023-12-20T13:05:42;4.90;99.90
14016;DHT22;7083;48.854;9.158;2023-12-20T13:08:09;4.80;99.90
14016;DHT22;7083;48.854;9.158;2023-12-20T13:10:37;4.80;99.90
14016;DHT22;7083;48.854;9.158;2023-12-20T13:13:05;4.70;99.90
14016;DHT22;7083;48.854;9.158;2023-12-20T13:15:32;4.60;99.90
14016;DHT22;7083;48.854;9.158;2023-12-20T13:17:59;4.80;99.90
14016;DHT22;7083;48.854;9.158;2023-12-20T13:20:26;4.90;99.90
14016;DHT22;7083;48.854;9.158;2023-12-20T13:22:53;5.00;99.90
14016;DHT22;7083;48.854;9.158;2023-12-20T13:25:20;5.10;99.90
14016;DHT22;7083;48.854;9.158;2023-12-20T13:27:47;5.10;99.90
14016;DHT22;7083;48.854;9.158;2023-12-20T13:30:16;5.70;99.90
14016;DHT22;7083;48.854;9.158;2023-12-20T13:32:44;5.40;99.90
14016;DHT22;7083;48.854;9.158;2023-12-20T13:35:10;5.40;99.90
14016;DHT22;7083;48.854;9.158;2023-12-20T13:37:38;5.40;99.90
14016;DHT22;7083;48.854;9.158;2023-12-20T13:40:06;5.40;99.90
14016;DHT22;7083;48.854;9.158;2023-12-20T13:42:33;5.60;99.90
14016;DHT22;7083;48.854;9.158;2023-12-20T13:45:00;5.50;99.90
14016;DHT22;7083;48.854;9.158;2023-12-20T13:47:28;5.40;99.90
14016;DHT22;7083;48.854;9.158;2023-12-20T13:49:55;5.30;99.90
14016;DHT22;7083;48.854;9.158;2023-12-20T13:52:21;5.20;99.90
14016;DHT22;7083;48.854;9.158;2023-12-20T13:54:48;6.60;99.90
14016;DHT22;7083;48.854;9.158;2023-12-20T13:57:15;5.50;99.90
14016;DHT22;7083;48.854;9.158;2023-12-20T13:59:42;5.00;99.90
14016;DHT22;7083;48.854;9.158;2023-12-20T14:02:08;5.00;99.90
14016;DHT22;7083;48.854;9.158;2023-12-20T14:04:37;4.90;99.90
14016;DHT22;7083;48.854;9.158;2023-12-20T14:07:04;4.80;99.90
14016;DHT22;7083;48.854;9.158;2023-12-20T14:09:33;4.80;99.90
14016;DHT22;7083;48.854;9.158;2023-12-20T14:11:59;4.80;99.90
14016;DHT22;7083;48.854;9.158;2023-12-20T14:14:26;4.70;99.90
14016;DHT22;7083;48.854;9.158;2023-12-20T14:16:53;4.80;99.90
14016;DHT22;7083;48.854;9.158;2023-12-20T14:19:20;4.70;99.90
14016;DHT22;7083;48.854;9.158;2023-12-20T14:21:48;4.70;99.90
14016;DHT22;7083;48.854;9.158;2023-12-20T14:24:15;5.40;99.90
14016;DHT22;7083;48.854;9.158;2023-12-20T14:26:42;4.50;99.90
14016;DHT22;7083;48.854;9.158;2023-12-20T14:29:17;4.70;99.90
14016;DHT22;7083;48.854;9.158;2023-12-20T14:31:44;4.80;99.90
14016;DHT22;7083;48.854;9.158;2023-12-20T14:34:11;4.60;99.90
14016;DHT22;7083;48.854;9.158;2023-12-20T14:36:38;4.60;99.90
14016;DHT22;7083;48.854;9.158;2023-12-20T14:39:07;4.50;99.90
14016;DHT22;7083;48.854;9.158;2023-12-20T14:41:34;4.50;99.90
14016;DHT22;7083;48.854;9.158;2023-12-20T14:44:00;4.50;99.90
14016;DHT22;7083;48.854;9.158;2023-12-20T14:46:30;4.30;99.90
14016;DHT22;7083;48.854;9.158;2023-12-20T14:48:57;5.10;99.90
14016;DHT22;7083;48.854;9.158;2023-12-20T14:51:23;4.40;99.90
14016;DHT22;7083;48.854;9.158;2023-12-20T14:53:50;4.50;99.90
14016;DHT22;7083;48.854;9.158;2023-12-20T14:56:27;4.50;99.90
14016;DHT22;7083;48.854;9.158;2023-12-20T14:58:56;4.40;99.90
14016;DHT22;7083;48.854;9.158;2023-12-20T15:01:23;4.40;99.90
14016;DHT22;7083;48.854;9.158;2023-12-20T15:03:50;4.40;99.90
14016;DHT22;7083;48.854;9.158;2023-12-20T15:06:16;4.60;99.90
14016;DHT22;7083;48.854;9.158;2023-12-20T15:08:45;4.40;99.90
14016;DHT22;7083;48.854;9.158;2023-12-20T15:11:12;4.30;99.90
14016;DHT22;7083;48.854;9.158;2023-12-20T15:13:40;4.30;99.90
14016;DHT22;7083;48.854;9.158;2023-12-20T15:16:07;4.70;99.90
14016;DHT22;7083;48.854;9.158;2023-12-20T15:18:34;4.30;99.90
14016;DHT22;7083;48.854;9.158;2023-12-20T15:21:01;4.30;99.90
14016;DHT22;7083;48.854;9.158;2023-12-20T15:23:28;6.00;99.90
14016;DHT22;7083;48.854;9.158;2023-12-20T15:25:56;4.30;99.90
14016;DHT22;7083;48.854;9.158;2023-12-20T15:28:22;5.30;99.90
14016;DHT22;7083;48.854;9.158;2023-12-20T15:30:50;4.20;99.90
14016;DHT22;7083;48.854;9.158;2023-12-20T15:33:17;4.30;99.90
14016;DHT22;7083;48.854;9.158;2023-12-20T15:35:44;4.30;99.90
14016;DHT22;7083;48.854;9.158;2023-12-20T15:38:10;4.30;99.90
14016;DHT22;7083;48.854;9.158;2023-12-20T15:40:37;4.30;99.90
14016;DHT22;7083;48.854;9.158;2023-12-20T15:43:04;4.30;99.90
14016;DHT22;7083;48.854;9.158;2023-12-20T15:45:30;4.30;99.90
14016;DHT22;7083;48.854;9.158;2023-12-20T15:47:59;4.30;99.90
14016;DHT22;7083;48.854;9.158;2023-12-20T15:50:25;4.30;99.90
14016;DHT22;7083;48.854;9.158;2023-12-20T15:52:52;4.30;99.90
14016;DHT22;7083;48.854;9.158;2023-12-20T15:55:19;4.30;99.90
14016;DHT22;7083;48.854;9.158;2023-12-20T15:57:45;4.30;99.90
14016;DHT22;7083;48.854;9.158;2023-12-20T16:00:13;4.30;99.90
14016;DHT22;7083;48.854;9.158;2023-12-20T16:02:40;4.30;99.90